createdAt,value
2018-07-05T00:01:26.701Z,79.83
2018-07-05T00:04:12.513Z,80.04
2018-07-05T00:06:58.366Z,80.04
2018-07-05T00:09:44.192Z,79.40
2018-07-05T00:12:29.940Z,80.52
2018-07-05T00:15:15.849Z,80.57
2018-07-05T00:17:55.655Z,80.13
2018-07-05T00:20:41.196Z,80.51
2018-07-05T00:23:27.042Z,80.66
2018-07-05T00:26:12.773Z,82.00
2018-07-05T00:28:58.338Z,81.69
2018-07-05T00:31:38.058Z,81.80
2018-07-05T00:34:23.756Z,81.19
2018-07-05T00:37:09.544Z,81.98
2018-07-05T00:39:55.230Z,82.10
2018-07-05T00:42:40.784Z,81.49
2018-07-05T00:45:26.699Z,81.85
2018-07-05T00:48:12.460Z,81.42
2018-07-05T00:50:58.055Z,81.58
2018-07-05T00:53:43.585Z,81.84
2018-07-05T00:56:29.542Z,81.28
2018-07-05T00:59:15.203Z,81.17
2018-07-05T01:02:00.703Z,80.92
2018-07-05T01:04:46.484Z,79.86
2018-07-05T01:07:32.160Z,81.63
2018-07-05T01:10:17.968Z,81.43
2018-07-05T01:13:03.650Z,81.24
2018-07-05T01:15:49.320Z,80.47
2018-07-05T01:18:35.254Z,81.65
2018-07-05T01:21:15.120Z,80.76
2018-07-05T01:24:00.793Z,81.15
2018-07-05T01:26:46.416Z,80.10
2018-07-05T01:29:26.392Z,80.81
2018-07-05T01:32:12.220Z,81.37
2018-07-05T01:34:52.101Z,81.57
2018-07-05T01:37:37.891Z,81.13
2018-07-05T01:40:17.818Z,81.32
2018-07-05T01:43:03.467Z,81.37
2018-07-05T01:45:55.042Z,81.41
2018-07-05T01:48:40.892Z,81.58
2018-07-05T01:51:26.760Z,81.47
2018-07-05T01:54:12.515Z,82.10
2018-07-05T01:56:58.351Z,82.08
2018-07-05T01:59:43.818Z,81.67
2018-07-05T02:02:29.675Z,81.93
2018-07-05T02:05:15.537Z,81.28
2018-07-05T02:07:55.412Z,81.38
2018-07-05T02:10:42.859Z,81.73
2018-07-05T02:13:29.919Z,82.00
2018-07-05T02:16:09.898Z,82.13
2018-07-05T02:18:55.887Z,82.11
2018-07-05T02:21:41.766Z,81.78
2018-07-05T02:24:27.693Z,81.77
2018-07-05T02:27:15.032Z,81.56
2018-07-05T02:30:00.839Z,81.83
2018-07-05T02:32:46.640Z,82.24
2018-07-05T02:35:32.347Z,82.62
2018-07-05T02:38:22.021Z,82.42
2018-07-05T02:41:02.554Z,81.61
2018-07-05T02:43:48.388Z,80.61
2018-07-05T02:46:29.203Z,80.42
2018-07-05T02:49:15.053Z,80.84
2018-07-05T02:52:00.544Z,80.26
2018-07-05T02:54:46.212Z,82.50
2018-07-05T02:57:32.196Z,81.11
2018-07-05T03:00:17.779Z,82.55
2018-07-05T03:03:03.357Z,81.91
2018-07-05T03:05:43.081Z,83.28
2018-07-05T03:08:32.698Z,82.88
2018-07-05T03:11:18.380Z,81.69
2018-07-05T03:14:03.985Z,81.04
2018-07-05T03:16:49.688Z,80.67
2018-07-05T03:19:35.525Z,82.81
2018-07-05T03:22:15.748Z,81.36
2018-07-05T03:25:01.481Z,81.30
2018-07-05T03:27:47.142Z,80.08
2018-07-05T03:30:33.011Z,81.61
2018-07-05T03:33:18.558Z,81.28
2018-07-05T03:36:04.311Z,81.29
2018-07-05T03:38:44.026Z,81.02
2018-07-05T03:41:29.883Z,82.51
2018-07-05T03:44:15.509Z,81.14
2018-07-05T03:47:01.444Z,80.02
2018-07-05T03:49:47.247Z,81.22
2018-07-05T03:52:33.024Z,80.59
2018-07-05T03:55:18.844Z,77.51
2018-07-05T03:58:04.539Z,75.85
2018-07-05T04:00:50.171Z,75.30
2018-07-05T04:03:35.828Z,77.10
2018-07-05T04:06:21.511Z,76.69
2018-07-05T04:09:07.291Z,77.74
2018-07-05T04:11:52.996Z,79.29
2018-07-05T04:14:38.759Z,80.67
2018-07-05T04:17:24.467Z,80.88
2018-07-05T04:20:04.425Z,80.72
2018-07-05T04:22:50.146Z,80.69
2018-07-05T04:25:30.095Z,80.80
2018-07-05T04:28:15.641Z,76.91
2018-07-05T04:31:01.482Z,73.45
2018-07-05T04:33:47.353Z,71.73
2018-07-05T04:36:32.979Z,72.77
2018-07-05T04:39:18.591Z,72.56
2018-07-05T04:42:04.215Z,71.20
2018-07-05T04:44:50.114Z,70.69
2018-07-05T04:47:35.590Z,71.85
2018-07-05T04:50:21.299Z,75.51
2018-07-05T04:53:07.112Z,72.88
2018-07-05T04:55:52.938Z,70.87
2018-07-05T04:58:38.603Z,70.99
2018-07-05T05:01:24.311Z,68.73
2018-07-05T05:04:09.987Z,68.78
2018-07-05T05:06:49.827Z,68.07
2018-07-05T05:09:35.387Z,66.77
2018-07-05T05:12:20.928Z,66.90
2018-07-05T05:15:06.753Z,66.01
2018-07-05T05:17:52.535Z,65.28
2018-07-05T05:20:38.289Z,64.40
2018-07-05T05:23:24.028Z,63.70
2018-07-05T05:26:09.629Z,62.79
2018-07-05T05:28:49.341Z,63.95
2018-07-05T05:31:35.143Z,64.49
2018-07-05T05:34:20.703Z,63.63
2018-07-05T05:37:06.547Z,62.93
2018-07-05T05:39:46.360Z,59.83
2018-07-05T05:42:31.971Z,59.70
2018-07-05T05:45:17.631Z,60.06
2018-07-05T05:48:03.219Z,60.18
2018-07-05T05:50:48.840Z,60.48
2018-07-05T05:53:34.847Z,58.45
2018-07-05T05:56:20.551Z,60.41
2018-07-05T05:59:06.499Z,58.81
2018-07-05T06:01:46.627Z,57.93
2018-07-05T06:04:32.290Z,58.58
2018-07-05T06:07:18.036Z,58.32
2018-07-05T06:09:57.804Z,60.84
2018-07-05T06:12:43.628Z,60.20
2018-07-05T06:15:29.617Z,58.16
2018-07-05T06:18:15.496Z,58.98
2018-07-05T06:21:01.257Z,60.64
2018-07-05T06:23:46.880Z,61.50
2018-07-05T06:26:32.674Z,63.16
2018-07-05T06:29:12.610Z,64.03
2018-07-05T06:31:58.399Z,63.54
2018-07-05T06:34:44.085Z,61.30
2018-07-05T06:37:29.962Z,61.71
2018-07-05T06:40:15.988Z,62.01
2018-07-05T06:43:01.508Z,62.16
2018-07-05T06:45:53.281Z,62.19
2018-07-05T06:48:33.137Z,61.75
2018-07-05T06:51:19.031Z,59.21
2018-07-05T06:54:04.723Z,57.50
2018-07-05T06:56:50.674Z,57.66
2018-07-05T06:59:36.619Z,59.14
2018-07-05T07:02:22.283Z,55.20
2018-07-05T07:05:07.949Z,54.39
2018-07-05T07:07:53.633Z,55.66
2018-07-05T07:10:39.315Z,53.73
2018-07-05T07:13:25.142Z,55.09
2018-07-05T07:16:10.909Z,55.42
2018-07-05T07:18:56.765Z,54.65
2018-07-05T07:21:42.407Z,53.07
2018-07-05T07:24:27.935Z,52.54
2018-07-05T07:27:13.788Z,52.78
2018-07-05T07:29:59.430Z,53.46
2018-07-05T07:32:45.091Z,51.08
2018-07-05T07:35:30.780Z,51.29
2018-07-05T07:38:16.587Z,49.83
2018-07-05T07:41:02.391Z,50.51
2018-07-05T07:43:29.373Z,48.95
2018-07-05T07:45:56.367Z,48.10
2018-07-05T07:48:23.283Z,48.68
2018-07-05T07:50:50.677Z,50.85
2018-07-05T07:53:17.592Z,52.52
2018-07-05T07:55:44.608Z,50.72
2018-07-05T07:58:11.590Z,49.13
2018-07-05T08:00:38.556Z,48.75
2018-07-05T08:03:05.476Z,48.55
2018-07-05T08:05:32.877Z,48.83
2018-07-05T08:08:00.323Z,49.58
2018-07-05T08:10:27.307Z,48.82
2018-07-05T08:12:54.271Z,46.84
2018-07-05T08:15:21.310Z,50.17
2018-07-05T08:17:48.235Z,47.09
2018-07-05T08:20:15.283Z,46.60
2018-07-05T08:22:42.208Z,46.42
2018-07-05T08:25:09.124Z,50.27
2018-07-05T08:27:36.091Z,48.17
2018-07-05T08:30:03.007Z,48.36
2018-07-05T08:32:30.040Z,45.92
2018-07-05T08:34:56.984Z,49.45
2018-07-05T08:37:23.946Z,49.35
2018-07-05T08:39:50.871Z,47.88
2018-07-05T08:42:17.826Z,48.89
2018-07-05T08:44:44.816Z,48.88
2018-07-05T08:47:11.784Z,49.45
2018-07-05T08:49:38.705Z,48.75
2018-07-05T08:52:05.665Z,46.99
2018-07-05T08:54:32.620Z,46.32
2018-07-05T08:56:59.687Z,45.94
2018-07-05T08:59:26.613Z,44.45
2018-07-05T09:01:53.570Z,44.48
2018-07-05T09:04:20.488Z,43.53
2018-07-05T09:06:47.480Z,43.60
2018-07-05T09:09:14.464Z,45.25
2018-07-05T09:11:41.774Z,43.16
2018-07-05T09:14:08.748Z,43.26
2018-07-05T09:16:35.701Z,44.34
2018-07-05T09:19:03.407Z,43.12
2018-07-05T09:21:30.372Z,42.01
2018-07-05T09:23:58.307Z,44.04
2018-07-05T09:26:25.605Z,44.41
2018-07-05T09:28:52.539Z,47.04
2018-07-05T09:31:19.639Z,45.70
2018-07-05T09:33:46.963Z,45.46
2018-07-05T09:36:13.880Z,44.63
2018-07-05T09:38:40.788Z,43.66
2018-07-05T09:41:09.006Z,45.40
2018-07-05T09:43:35.916Z,45.20
2018-07-05T09:46:09.119Z,45.75
2018-07-05T09:48:36.408Z,45.44
2018-07-05T09:51:03.357Z,45.01
2018-07-05T09:53:30.267Z,45.01
2018-07-05T09:55:57.348Z,44.54
2018-07-05T09:58:24.755Z,45.63
2018-07-05T10:00:52.279Z,46.29
2018-07-05T10:03:20.868Z,48.14
2018-07-05T10:05:48.430Z,48.98
2018-07-05T10:08:16.497Z,48.13
2018-07-05T10:10:44.052Z,47.44
2018-07-05T10:13:11.484Z,46.19
2018-07-05T10:15:38.938Z,46.38
2018-07-05T10:18:06.000Z,47.68
2018-07-05T10:20:33.298Z,47.11
2018-07-05T10:23:00.288Z,45.74
2018-07-05T10:25:27.575Z,45.84
2018-07-05T10:27:54.492Z,48.45
2018-07-05T10:30:40.122Z,49.21
2018-07-05T10:33:25.790Z,48.87
2018-07-05T10:35:53.044Z,49.69
2018-07-05T10:38:19.964Z,48.62
2018-07-05T10:41:05.907Z,49.81
2018-07-05T10:43:51.733Z,50.83
2018-07-05T10:46:37.858Z,49.95
2018-07-05T10:49:23.364Z,49.41
2018-07-05T10:52:09.141Z,49.24
2018-07-05T10:54:54.799Z,47.60
2018-07-05T10:57:40.719Z,49.49
2018-07-05T11:00:26.454Z,48.26
2018-07-05T11:03:12.393Z,48.86
2018-07-05T11:05:58.076Z,49.64
2018-07-05T11:08:44.068Z,47.62
2018-07-05T11:11:29.709Z,47.72
2018-07-05T11:14:15.888Z,46.62
2018-07-05T11:17:01.679Z,46.56
2018-07-05T11:19:41.578Z,46.59
2018-07-05T11:22:27.285Z,45.84
2018-07-05T11:25:13.241Z,49.06
2018-07-05T11:27:59.071Z,49.99
2018-07-05T11:30:45.048Z,50.84
2018-07-05T11:33:30.739Z,49.42
2018-07-05T11:36:16.690Z,49.13
2018-07-05T11:38:56.726Z,48.39
2018-07-05T11:41:42.573Z,49.39
2018-07-05T11:44:28.223Z,50.09
2018-07-05T11:47:14.043Z,51.76
2018-07-05T11:49:54.000Z,51.43
2018-07-05T11:52:39.820Z,52.47
2018-07-05T11:55:19.582Z,51.46
2018-07-05T11:57:59.954Z,53.83
2018-07-05T12:00:45.730Z,52.86
2018-07-05T12:03:31.783Z,51.06
2018-07-05T12:06:17.543Z,51.86
2018-07-05T12:09:04.543Z,51.39
2018-07-05T12:11:50.451Z,51.26
2018-07-05T12:14:36.363Z,52.06
2018-07-05T12:17:22.067Z,52.06
2018-07-05T12:20:07.846Z,54.20
2018-07-05T12:22:53.460Z,54.45
2018-07-05T12:25:33.574Z,53.64
2018-07-05T12:28:19.217Z,54.80
2018-07-05T12:31:05.015Z,53.50
2018-07-05T12:33:50.989Z,53.49
2018-07-05T12:36:37.112Z,54.62
2018-07-05T12:39:22.950Z,54.43
2018-07-05T12:42:09.127Z,54.39
2018-07-05T12:44:54.794Z,51.67
2018-07-05T12:47:40.678Z,52.26
2018-07-05T12:50:26.198Z,52.19
2018-07-05T12:53:12.279Z,53.35
2018-07-05T12:55:57.963Z,53.99
2018-07-05T12:58:44.100Z,55.03
2018-07-05T13:01:24.134Z,56.16
2018-07-05T13:04:10.062Z,54.88
2018-07-05T13:06:55.622Z,54.86
2018-07-05T13:09:41.540Z,53.43
2018-07-05T13:12:27.365Z,54.15
2018-07-05T13:15:13.567Z,54.26
2018-07-05T13:17:59.342Z,54.13
2018-07-05T13:20:45.018Z,52.94
2018-07-05T13:23:30.799Z,53.42
2018-07-05T13:26:16.481Z,51.99
2018-07-05T13:29:02.303Z,53.16
2018-07-05T13:31:48.504Z,53.09
2018-07-05T13:34:34.297Z,51.41
2018-07-05T13:37:20.292Z,52.34
2018-07-05T13:40:06.067Z,53.35
2018-07-05T13:42:51.991Z,53.07
2018-07-05T13:45:43.605Z,52.37
2018-07-05T13:48:29.747Z,53.69
2018-07-05T13:51:15.482Z,52.96
2018-07-05T13:54:01.619Z,51.43
2018-07-05T13:56:47.370Z,51.37
2018-07-05T13:59:33.551Z,52.50
2018-07-05T14:02:19.358Z,52.25
2018-07-05T14:05:05.236Z,53.28
2018-07-05T14:07:50.969Z,52.63
2018-07-05T14:10:31.018Z,53.94
2018-07-05T14:13:16.767Z,54.82
2018-07-05T14:15:56.679Z,53.15
2018-07-05T14:18:42.248Z,49.81
2018-07-05T14:21:23.479Z,49.70
2018-07-05T14:24:09.288Z,49.57
2018-07-05T14:26:55.254Z,51.08
2018-07-05T14:29:40.979Z,51.31
2018-07-05T14:32:26.940Z,51.22
2018-07-05T14:35:12.836Z,51.15
2018-07-05T14:37:59.023Z,50.18
2018-07-05T14:40:44.838Z,52.32
2018-07-05T14:43:30.416Z,52.03
2018-07-05T14:46:16.368Z,52.54
2018-07-05T14:49:02.390Z,52.20
2018-07-05T14:51:48.161Z,52.64
2018-07-05T14:54:34.096Z,52.49
2018-07-05T14:57:20.098Z,52.20
2018-07-05T14:59:59.986Z,53.36
2018-07-05T15:02:45.762Z,52.35
2018-07-05T15:05:31.787Z,51.96
2018-07-05T15:08:17.586Z,52.33
2018-07-05T15:11:03.615Z,52.24
2018-07-05T15:13:49.137Z,52.98
2018-07-05T15:16:35.145Z,52.02
2018-07-05T15:19:15.120Z,50.89
2018-07-05T15:22:01.110Z,50.29
2018-07-05T15:24:47.072Z,50.18
2018-07-05T15:27:32.920Z,49.27
2018-07-05T15:30:18.991Z,46.89
2018-07-05T15:33:04.939Z,49.49
2018-07-05T15:35:50.503Z,48.78
2018-07-05T15:38:36.324Z,49.29
2018-07-05T15:41:16.226Z,48.89
2018-07-05T15:43:56.651Z,49.60
2018-07-05T15:46:42.385Z,49.96
2018-07-05T15:49:28.536Z,50.88
2018-07-05T15:52:14.119Z,50.54
2018-07-05T15:54:59.875Z,49.38
2018-07-05T15:57:45.435Z,50.84
2018-07-05T16:00:25.442Z,50.01
2018-07-05T16:03:11.158Z,48.49
2018-07-05T16:05:57.023Z,50.47
2018-07-05T16:08:42.730Z,51.72
2018-07-05T16:11:28.912Z,49.93
2018-07-05T16:14:14.582Z,50.33
2018-07-05T16:17:00.377Z,51.00
2018-07-05T16:19:46.065Z,50.63
2018-07-05T16:22:31.784Z,49.08
2018-07-05T16:25:18.260Z,49.10
2018-07-05T16:28:04.147Z,49.11
2018-07-05T16:30:49.784Z,49.97
2018-07-05T16:33:35.611Z,49.41
2018-07-05T16:36:15.311Z,50.42
2018-07-05T16:39:01.477Z,49.61
2018-07-05T16:41:47.209Z,51.09
2018-07-05T16:44:33.136Z,51.56
2018-07-05T16:47:12.978Z,52.17
2018-07-05T16:49:58.982Z,51.95
2018-07-05T16:52:44.766Z,51.59
2018-07-05T16:55:30.722Z,51.88
2018-07-05T16:58:16.639Z,50.83
2018-07-05T17:01:02.468Z,51.60
2018-07-05T17:03:48.268Z,51.74
2018-07-05T17:06:28.467Z,53.12
2018-07-05T17:09:08.306Z,54.45
2018-07-05T17:11:54.974Z,55.19
2018-07-05T17:14:40.689Z,56.43
2018-07-05T17:17:26.534Z,56.48
2018-07-05T17:20:12.275Z,57.16
2018-07-05T17:22:58.097Z,57.09
2018-07-05T17:25:45.330Z,57.24
2018-07-05T17:28:31.013Z,57.81
2018-07-05T17:31:16.870Z,57.09
2018-07-05T17:34:02.595Z,56.38
2018-07-05T17:36:48.422Z,57.20
2018-07-05T17:39:33.972Z,56.62
2018-07-05T17:42:19.880Z,57.11
2018-07-05T17:44:59.732Z,57.14
2018-07-05T17:47:45.875Z,57.58
2018-07-05T17:50:31.575Z,57.57
2018-07-05T17:53:17.771Z,57.54
2018-07-05T17:56:03.459Z,58.08
2018-07-05T17:58:49.301Z,58.67
2018-07-05T18:01:35.124Z,59.75
2018-07-05T18:04:15.175Z,59.31
2018-07-05T18:07:01.092Z,59.73
2018-07-05T18:09:46.857Z,59.86
2018-07-05T18:12:32.496Z,60.02
2018-07-05T18:15:18.446Z,60.54
2018-07-05T18:18:04.131Z,60.32
2018-07-05T18:20:49.725Z,60.71
2018-07-05T18:23:35.267Z,61.64
2018-07-05T18:26:21.500Z,60.71
2018-07-05T18:29:07.145Z,61.55
2018-07-05T18:31:52.837Z,61.16
2018-07-05T18:34:38.458Z,61.28
2018-07-05T18:37:24.555Z,61.30
2018-07-05T18:40:10.139Z,61.81
2018-07-05T18:42:55.852Z,62.10
2018-07-05T18:45:47.787Z,62.27
2018-07-05T18:48:33.847Z,62.82
2018-07-05T18:51:19.468Z,62.98
2018-07-05T18:53:59.620Z,63.25
2018-07-05T18:56:45.405Z,63.18
2018-07-05T18:59:27.874Z,63.85
2018-07-05T19:02:13.412Z,64.96
2018-07-05T19:04:53.113Z,65.45
2018-07-05T19:07:38.861Z,65.62
2018-07-05T19:10:24.704Z,66.03
2018-07-05T19:13:10.539Z,66.12
2018-07-05T19:15:56.570Z,66.20
2018-07-05T19:18:42.233Z,66.98
2018-07-05T19:21:28.152Z,66.52
2018-07-05T19:24:13.920Z,67.32
2018-07-05T19:26:59.647Z,67.51
2018-07-05T19:29:45.315Z,68.36
2018-07-05T19:32:31.520Z,68.95
2018-07-05T19:35:17.403Z,68.73
2018-07-05T19:38:03.364Z,68.82
2018-07-05T19:40:49.188Z,68.86
2018-07-05T19:43:36.323Z,68.27
2018-07-05T19:46:21.968Z,68.26
2018-07-05T19:49:08.182Z,68.15
2018-07-05T19:51:53.884Z,68.93
2018-07-05T19:54:39.881Z,69.09
2018-07-05T19:57:25.498Z,68.49
2018-07-05T20:00:05.804Z,69.49
2018-07-05T20:02:51.382Z,69.60
2018-07-05T20:05:31.542Z,70.13
2018-07-05T20:08:17.175Z,69.41
2018-07-05T20:11:00.371Z,69.97
2018-07-05T20:13:46.251Z,69.47
2018-07-05T20:16:32.344Z,69.96
2018-07-05T20:19:18.120Z,70.72
2018-07-05T20:22:06.880Z,70.92
2018-07-05T20:24:52.503Z,70.31
2018-07-05T20:27:38.777Z,70.40
2018-07-05T20:30:24.403Z,71.28
2018-07-05T20:33:10.455Z,72.13
2018-07-05T20:35:56.557Z,72.06
2018-07-05T20:38:42.950Z,72.53
2018-07-05T20:41:28.609Z,72.88
2018-07-05T20:44:14.388Z,72.74
2018-07-05T20:47:00.017Z,72.63
2018-07-05T20:49:46.205Z,72.97
2018-07-05T20:52:31.772Z,72.91
2018-07-05T20:55:17.767Z,73.90
2018-07-05T20:58:03.468Z,73.17
2018-07-05T21:00:49.645Z,73.27
2018-07-05T21:03:35.015Z,73.33
2018-07-05T21:06:20.663Z,72.59
2018-07-05T21:09:00.449Z,72.22
2018-07-05T21:11:46.472Z,71.79
2018-07-05T21:14:32.133Z,72.21
2018-07-05T21:17:18.159Z,73.22
2018-07-05T21:19:58.021Z,72.67
2018-07-05T21:22:44.302Z,72.15
2018-07-05T21:25:30.021Z,72.75
2018-07-05T21:28:10.010Z,72.95
2018-07-05T21:30:55.602Z,72.20
2018-07-05T21:33:41.725Z,72.92
2018-07-05T21:36:27.480Z,73.18
2018-07-05T21:39:13.499Z,72.76
2018-07-05T21:41:59.559Z,72.65
2018-07-05T21:44:45.680Z,72.56
2018-07-05T21:47:31.642Z,72.57
2018-07-05T21:50:17.517Z,73.29
2018-07-05T21:52:57.445Z,72.56
2018-07-05T21:55:43.514Z,73.02
2018-07-05T21:58:29.117Z,72.32
2018-07-05T22:01:15.095Z,72.07
2018-07-05T22:04:00.669Z,72.13
2018-07-05T22:06:46.555Z,71.66
2018-07-05T22:09:32.037Z,72.18
2018-07-05T22:12:18.161Z,71.78
2018-07-05T22:15:03.924Z,72.42
2018-07-05T22:17:49.931Z,71.83
2018-07-05T22:20:41.100Z,72.14
2018-07-05T22:23:32.871Z,71.18
2018-07-05T22:26:24.249Z,71.04
2018-07-05T22:29:15.915Z,71.24
2018-07-05T22:32:01.530Z,70.53
2018-07-05T22:34:47.499Z,70.97
2018-07-05T22:37:33.057Z,70.95
2018-07-05T22:40:13.129Z,70.39
2018-07-05T22:42:58.720Z,70.37
2018-07-05T22:45:44.911Z,70.86
2018-07-05T22:48:30.603Z,71.08
2018-07-05T22:51:16.464Z,70.95
2018-07-05T22:54:02.245Z,71.60
2018-07-05T22:56:48.990Z,71.35
2018-07-05T22:59:34.648Z,71.94
2018-07-05T23:02:14.659Z,71.82
2018-07-05T23:04:54.516Z,71.95
2018-07-05T23:07:34.631Z,72.27
2018-07-05T23:10:20.347Z,72.49
2018-07-05T23:13:06.620Z,72.27
2018-07-05T23:15:52.327Z,72.61
2018-07-05T23:18:38.403Z,73.23
2018-07-05T23:21:24.065Z,73.82
2018-07-05T23:24:09.972Z,73.97
2018-07-05T23:26:55.728Z,73.29
2018-07-05T23:29:41.545Z,73.44
2018-07-05T23:32:27.181Z,73.64
2018-07-05T23:35:13.065Z,74.20
2018-07-05T23:37:52.797Z,73.83
2018-07-05T23:40:38.773Z,73.91
2018-07-05T23:43:24.391Z,74.63
2018-07-05T23:46:10.296Z,75.07
2018-07-05T23:48:56.045Z,74.78
2018-07-05T23:51:41.756Z,75.39
2018-07-05T23:54:21.617Z,75.06
2018-07-05T23:57:07.555Z,75.30
2018-07-05T23:59:53.371Z,74.61
